createdAt,value
2018-04-17T22:09:32.100Z,82.40
2018-04-17T22:11:59.603Z,82.50
2018-04-17T22:14:27.125Z,82.50
2018-04-17T22:16:54.637Z,82.50
2018-04-17T22:19:22.642Z,82.90
2018-04-17T22:21:50.153Z,82.80
2018-04-17T22:24:18.071Z,83.00
2018-04-17T22:26:45.573Z,83.00
2018-04-17T22:29:13.105Z,83.30
2018-04-17T22:31:40.616Z,83.30
2018-04-17T22:34:08.183Z,83.10
2018-04-17T22:36:35.709Z,83.10
2018-04-17T22:39:03.258Z,83.20
2018-04-17T22:41:30.781Z,83.30
2018-04-17T22:43:58.274Z,83.40
2018-04-17T22:46:25.799Z,83.20
2018-04-17T22:48:53.302Z,83.40
2018-04-17T22:51:20.836Z,83.50
2018-04-17T22:53:48.361Z,83.50
2018-04-17T22:56:15.884Z,83.50
2018-04-17T22:58:43.394Z,83.70
2018-04-17T23:01:11.397Z,83.90
2018-04-17T23:03:39.047Z,83.90
2018-04-17T23:06:06.611Z,83.70
2018-04-17T23:08:34.156Z,83.80
2018-04-17T23:11:01.649Z,83.90
2018-04-17T23:13:29.171Z,84.00
2018-04-17T23:15:56.673Z,84.20
2018-04-17T23:18:24.197Z,84.20
2018-04-17T23:20:51.709Z,84.30
2018-04-17T23:23:19.622Z,84.40
2018-04-17T23:25:47.114Z,84.60
2018-04-17T23:28:14.646Z,85.10
2018-04-17T23:30:42.153Z,85.10
2018-04-17T23:33:09.741Z,85.10
2018-04-17T23:35:37.245Z,84.60
2018-04-17T23:38:05.157Z,84.60
2018-04-17T23:40:32.653Z,84.60
2018-04-17T23:43:00.172Z,84.60
2018-04-17T23:45:27.677Z,84.30
2018-04-17T23:47:55.595Z,84.20
2018-04-17T23:50:23.121Z,84.20
2018-04-17T23:52:50.675Z,84.30
2018-04-17T23:55:18.170Z,84.30
2018-04-17T23:57:45.670Z,84.20
